Current Conditions
Scattered
Clouds



Pressure
1002.92 (hPa) - 29.62 (inHG)
Visibility

10.0 (km) - 6.2 (miles)
   Temperature
8  °C
Temperature
4  °C
Dewpoint
76  %
 Humidity
   Wind Speed
29  km/h
16  kts
18  mph
8.0  m/s
   Wind Direction
N
45°
E
90°
135°
S
180°
225°
W
270°
315°
 220°

South West
   Airport Data
EDDR
Saarbr├╝cken Airport
Metar :EDDR 261450Z AUTO 22016KT 9999 SCT015 BKN037 08/04 Q1003 RESHUP TEMPO SHRA
Sun 26th March 15:50 pm
   Raw Metar Info
Raw METAR is the most common format in the world for the transmission of observational weather data. It is highly standardized through the International Civil Aviation Organization (ICAO), which allows it to be understood throughout most of the world.
   API Info
Data Provided by
https://www.checkwx.com/weather/EDDR

Aviation Weather providing METAR, TAF, AIRMET, SIGMET and OUTLOOK Weather Reports
   © Info
CSS/SVG/PHP scripts were developed by weather34.com for use in the weather34 template © 2015-2023

Guide Info provided by Metar-Wikipedia